sensor_id;sensor_type;location;lat;lon;timestamp;temperature;humidity
37240;DHT22;23130;48.760;9.178;2022-11-04T00:01:51;9.80;99.90
37240;DHT22;23130;48.760;9.178;2022-11-04T00:04:18;9.80;99.90
37240;DHT22;23130;48.760;9.178;2022-11-04T00:06:44;9.80;99.90
37240;DHT22;23130;48.760;9.178;2022-11-04T00:09:12;9.70;99.90
37240;DHT22;23130;48.760;9.178;2022-11-04T00:11:39;9.70;99.90
37240;DHT22;23130;48.760;9.178;2022-11-04T00:14:24;9.70;99.90
37240;DHT22;23130;48.760;9.178;2022-11-04T00:16:49;9.70;99.90
37240;DHT22;23130;48.760;9.178;2022-11-04T00:19:33;9.70;99.90
37240;DHT22;23130;48.760;9.178;2022-11-04T00:22:17;9.70;99.90
37240;DHT22;23130;48.760;9.178;2022-11-04T00:25:02;9.80;99.90
37240;DHT22;23130;48.760;9.178;2022-11-04T00:27:46;9.70;99.90
37240;DHT22;23130;48.760;9.178;2022-11-04T00:30:31;9.70;99.90
37240;DHT22;23130;48.760;9.178;2022-11-04T00:32:56;9.80;99.90
37240;DHT22;23130;48.760;9.178;2022-11-04T00:35:46;9.80;99.90
37240;DHT22;23130;48.760;9.178;2022-11-04T00:38:12;9.70;99.90
37240;DHT22;23130;48.760;9.178;2022-11-04T00:40:37;9.70;99.90
37240;DHT22;23130;48.760;9.178;2022-11-04T00:43:03;9.70;99.90
37240;DHT22;23130;48.760;9.178;2022-11-04T00:45:28;9.70;99.90
37240;DHT22;23130;48.760;9.178;2022-11-04T00:47:54;9.70;99.90
37240;DHT22;23130;48.760;9.178;2022-11-04T00:50:19;9.70;99.90
37240;DHT22;23130;48.760;9.178;2022-11-04T00:52:45;9.70;99.90
37240;DHT22;23130;48.760;9.178;2022-11-04T00:55:10;9.70;99.90
37240;DHT22;23130;48.760;9.178;2022-11-04T00:57:36;9.70;99.90
37240;DHT22;23130;48.760;9.178;2022-11-04T01:00:02;9.70;99.90
37240;DHT22;23130;48.760;9.178;2022-11-04T01:02:27;9.70;99.90
37240;DHT22;23130;48.760;9.178;2022-11-04T01:04:53;9.70;99.90
37240;DHT22;23130;48.760;9.178;2022-11-04T01:07:18;9.70;99.90
37240;DHT22;23130;48.760;9.178;2022-11-04T01:09:44;9.70;99.90
37240;DHT22;23130;48.760;9.178;2022-11-04T01:12:09;9.70;99.90
37240;DHT22;23130;48.760;9.178;2022-11-04T01:14:35;9.70;99.90
37240;DHT22;23130;48.760;9.178;2022-11-04T01:17:01;9.70;99.90
37240;DHT22;23130;48.760;9.178;2022-11-04T01:19:26;9.70;99.90
37240;DHT22;23130;48.760;9.178;2022-11-04T01:21:52;9.70;99.90
37240;DHT22;23130;48.760;9.178;2022-11-04T01:24:17;9.60;99.90
37240;DHT22;23130;48.760;9.178;2022-11-04T01:26:43;9.60;99.90
37240;DHT22;23130;48.760;9.178;2022-11-04T01:29:09;9.60;99.90
37240;DHT22;23130;48.760;9.178;2022-11-04T01:31:34;9.60;99.90
37240;DHT22;23130;48.760;9.178;2022-11-04T01:34:00;9.70;99.90
37240;DHT22;23130;48.760;9.178;2022-11-04T01:36:26;9.80;99.90
37240;DHT22;23130;48.760;9.178;2022-11-04T01:38:55;9.80;99.90
37240;DHT22;23130;48.760;9.178;2022-11-04T01:41:27;9.80;99.90
37240;DHT22;23130;48.760;9.178;2022-11-04T01:46:25;9.60;99.90
37240;DHT22;23130;48.760;9.178;2022-11-04T01:48:52;9.60;99.90
37240;DHT22;23130;48.760;9.178;2022-11-04T01:51:20;9.50;99.90
37240;DHT22;23130;48.760;9.178;2022-11-04T01:53:45;9.50;99.90
37240;DHT22;23130;48.760;9.178;2022-11-04T01:56:13;9.50;99.90
37240;DHT22;23130;48.760;9.178;2022-11-04T01:58:47;9.40;99.90
37240;DHT22;23130;48.760;9.178;2022-11-04T02:01:13;9.40;99.90
37240;DHT22;23130;48.760;9.178;2022-11-04T02:06:11;9.40;99.90
37240;DHT22;23130;48.760;9.178;2022-11-04T02:08:38;9.30;99.90
37240;DHT22;23130;48.760;9.178;2022-11-04T02:11:05;9.30;99.90
37240;DHT22;23130;48.760;9.178;2022-11-04T02:13:31;9.30;99.90
37240;DHT22;23130;48.760;9.178;2022-11-04T02:19:43;9.30;99.90
37240;DHT22;23130;48.760;9.178;2022-11-04T02:30:01;9.20;99.90
37240;DHT22;23130;48.760;9.178;2022-11-04T02:35:05;9.20;99.90
37240;DHT22;23130;48.760;9.178;2022-11-04T02:40:44;9.20;99.90
37240;DHT22;23130;48.760;9.178;2022-11-04T02:45:23;9.10;99.90
37240;DHT22;23130;48.760;9.178;2022-11-04T02:47:53;9.10;99.90
37240;DHT22;23130;48.760;9.178;2022-11-04T02:50:26;9.00;99.90
37240;DHT22;23130;48.760;9.178;2022-11-04T02:53:07;9.00;99.90
37240;DHT22;23130;48.760;9.178;2022-11-04T02:55:36;9.00;99.90
37240;DHT22;23130;48.760;9.178;2022-11-04T02:58:04;8.90;99.90
37240;DHT22;23130;48.760;9.178;2022-11-04T03:00:31;8.90;99.90
37240;DHT22;23130;48.760;9.178;2022-11-04T03:03:03;8.80;99.90
37240;DHT22;23130;48.760;9.178;2022-11-04T03:05:32;8.80;99.90
37240;DHT22;23130;48.760;9.178;2022-11-04T03:08:00;8.80;99.90
37240;DHT22;23130;48.760;9.178;2022-11-04T03:10:34;8.70;99.90
37240;DHT22;23130;48.760;9.178;2022-11-04T03:13:02;8.70;99.90
37240;DHT22;23130;48.760;9.178;2022-11-04T03:15:30;8.70;99.90
37240;DHT22;23130;48.760;9.178;2022-11-04T03:20:31;8.60;99.90
37240;DHT22;23130;48.760;9.178;2022-11-04T03:22:56;8.60;99.90
37240;DHT22;23130;48.760;9.178;2022-11-04T03:25:25;8.50;99.90
37240;DHT22;23130;48.760;9.178;2022-11-04T03:28:00;8.50;99.90
37240;DHT22;23130;48.760;9.178;2022-11-04T03:30:28;8.40;99.90
37240;DHT22;23130;48.760;9.178;2022-11-04T03:33:02;8.40;99.90
37240;DHT22;23130;48.760;9.178;2022-11-04T03:35:29;8.40;99.90
37240;DHT22;23130;48.760;9.178;2022-11-04T03:37:55;8.40;99.90
37240;DHT22;23130;48.760;9.178;2022-11-04T03:40:21;8.50;99.90
37240;DHT22;23130;48.760;9.178;2022-11-04T03:42:48;8.40;99.90
37240;DHT22;23130;48.760;9.178;2022-11-04T03:45:14;8.40;99.90
37240;DHT22;23130;48.760;9.178;2022-11-04T03:47:40;8.40;99.90
37240;DHT22;23130;48.760;9.178;2022-11-04T03:50:07;8.30;99.90
37240;DHT22;23130;48.760;9.178;2022-11-04T03:52:34;8.30;99.90
37240;DHT22;23130;48.760;9.178;2022-11-04T03:55:00;8.30;99.90
37240;DHT22;23130;48.760;9.178;2022-11-04T04:00:04;8.20;99.90
37240;DHT22;23130;48.760;9.178;2022-11-04T04:02:34;8.20;99.90
37240;DHT22;23130;48.760;9.178;2022-11-04T04:05:47;8.20;99.90
37240;DHT22;23130;48.760;9.178;2022-11-04T04:10:25;8.20;99.90
37240;DHT22;23130;48.760;9.178;2022-11-04T04:13:15;8.20;99.90
37240;DHT22;23130;48.760;9.178;2022-11-04T04:15:51;8.20;99.90
37240;DHT22;23130;48.760;9.178;2022-11-04T04:18:19;8.20;99.90
37240;DHT22;23130;48.760;9.178;2022-11-04T04:20:49;8.20;99.90
37240;DHT22;23130;48.760;9.178;2022-11-04T04:23:18;8.20;99.90
37240;DHT22;23130;48.760;9.178;2022-11-04T04:26:04;8.10;99.90
37240;DHT22;23130;48.760;9.178;2022-11-04T04:28:50;8.10;99.90
37240;DHT22;23130;48.760;9.178;2022-11-04T04:31:16;8.10;99.90
37240;DHT22;23130;48.760;9.178;2022-11-04T04:34:02;8.10;99.90
37240;DHT22;23130;48.760;9.178;2022-11-04T04:36:28;8.10;99.90
37240;DHT22;23130;48.760;9.178;2022-11-04T04:38:54;8.10;99.90
37240;DHT22;23130;48.760;9.178;2022-11-04T04:41:39;8.10;99.90
37240;DHT22;23130;48.760;9.178;2022-11-04T04:44:24;8.20;99.90
37240;DHT22;23130;48.760;9.178;2022-11-04T04:47:09;8.10;99.90
37240;DHT22;23130;48.760;9.178;2022-11-04T04:49:35;8.10;99.90
37240;DHT22;23130;48.760;9.178;2022-11-04T04:52:02;8.10;99.90
37240;DHT22;23130;48.760;9.178;2022-11-04T04:54:28;8.20;99.90
37240;DHT22;23130;48.760;9.178;2022-11-04T04:56:54;8.10;99.90
37240;DHT22;23130;48.760;9.178;2022-11-04T04:59:19;8.10;99.90
37240;DHT22;23130;48.760;9.178;2022-11-04T05:01:45;8.10;99.90
37240;DHT22;23130;48.760;9.178;2022-11-04T05:04:10;8.10;99.90
37240;DHT22;23130;48.760;9.178;2022-11-04T05:06:35;8.10;99.90
37240;DHT22;23130;48.760;9.178;2022-11-04T05:09:01;8.10;99.90
37240;DHT22;23130;48.760;9.178;2022-11-04T05:11:26;8.00;99.90
37240;DHT22;23130;48.760;9.178;2022-11-04T05:13:52;8.10;99.90
37240;DHT22;23130;48.760;9.178;2022-11-04T05:16:18;8.10;99.90
37240;DHT22;23130;48.760;9.178;2022-11-04T05:18:43;8.00;99.90
37240;DHT22;23130;48.760;9.178;2022-11-04T05:21:10;8.00;99.90
37240;DHT22;23130;48.760;9.178;2022-11-04T05:23:36;8.00;99.90
37240;DHT22;23130;48.760;9.178;2022-11-04T05:26:02;7.90;99.90
37240;DHT22;23130;48.760;9.178;2022-11-04T05:28:28;7.90;99.90
37240;DHT22;23130;48.760;9.178;2022-11-04T05:30:53;7.90;99.90
37240;DHT22;23130;48.760;9.178;2022-11-04T05:33:19;8.00;99.90
37240;DHT22;23130;48.760;9.178;2022-11-04T05:35:44;8.00;99.90
37240;DHT22;23130;48.760;9.178;2022-11-04T05:38:09;8.00;99.90
37240;DHT22;23130;48.760;9.178;2022-11-04T05:40:35;8.00;99.90
37240;DHT22;23130;48.760;9.178;2022-11-04T05:43:00;8.10;99.90
37240;DHT22;23130;48.760;9.178;2022-11-04T05:45:26;8.10;99.90
37240;DHT22;23130;48.760;9.178;2022-11-04T05:47:56;8.10;99.90
37240;DHT22;23130;48.760;9.178;2022-11-04T05:50:21;8.00;99.90
37240;DHT22;23130;48.760;9.178;2022-11-04T05:52:47;8.00;99.90
37240;DHT22;23130;48.760;9.178;2022-11-04T05:55:12;7.90;99.90
37240;DHT22;23130;48.760;9.178;2022-11-04T05:57:38;7.90;99.90
37240;DHT22;23130;48.760;9.178;2022-11-04T06:00:04;7.90;99.90
37240;DHT22;23130;48.760;9.178;2022-11-04T06:02:30;8.00;99.90
37240;DHT22;23130;48.760;9.178;2022-11-04T06:04:55;7.90;99.90
37240;DHT22;23130;48.760;9.178;2022-11-04T06:07:21;7.80;99.90
37240;DHT22;23130;48.760;9.178;2022-11-04T06:09:46;7.90;99.90
37240;DHT22;23130;48.760;9.178;2022-11-04T06:12:13;7.90;99.90
37240;DHT22;23130;48.760;9.178;2022-11-04T06:14:42;7.90;99.90
37240;DHT22;23130;48.760;9.178;2022-11-04T06:17:10;7.90;99.90
37240;DHT22;23130;48.760;9.178;2022-11-04T06:19:38;7.80;99.90
37240;DHT22;23130;48.760;9.178;2022-11-04T06:22:04;7.90;99.90
37240;DHT22;23130;48.760;9.178;2022-11-04T06:24:29;7.80;99.90
37240;DHT22;23130;48.760;9.178;2022-11-04T06:26:55;7.80;99.90
37240;DHT22;23130;48.760;9.178;2022-11-04T06:29:20;7.80;99.90
37240;DHT22;23130;48.760;9.178;2022-11-04T06:31:46;7.90;99.90
37240;DHT22;23130;48.760;9.178;2022-11-04T06:34:11;8.00;99.90
37240;DHT22;23130;48.760;9.178;2022-11-04T06:36:36;8.00;99.90
37240;DHT22;23130;48.760;9.178;2022-11-04T06:39:03;8.00;99.90
37240;DHT22;23130;48.760;9.178;2022-11-04T06:41:29;8.00;99.90
37240;DHT22;23130;48.760;9.178;2022-11-04T06:43:55;8.00;99.90
37240;DHT22;23130;48.760;9.178;2022-11-04T06:48:48;8.00;99.90
37240;DHT22;23130;48.760;9.178;2022-11-04T06:51:14;8.00;99.90
37240;DHT22;23130;48.760;9.178;2022-11-04T06:53:39;8.00;99.90
37240;DHT22;23130;48.760;9.178;2022-11-04T06:56:05;8.00;99.90
37240;DHT22;23130;48.760;9.178;2022-11-04T06:58:31;8.10;99.90
37240;DHT22;23130;48.760;9.178;2022-11-04T07:00:56;8.10;99.90
37240;DHT22;23130;48.760;9.178;2022-11-04T07:03:22;8.20;99.90
37240;DHT22;23130;48.760;9.178;2022-11-04T07:05:47;8.20;99.90
37240;DHT22;23130;48.760;9.178;2022-11-04T07:08:13;8.30;99.90
37240;DHT22;23130;48.760;9.178;2022-11-04T07:10:38;8.30;99.90
37240;DHT22;23130;48.760;9.178;2022-11-04T07:13:04;8.30;99.90
37240;DHT22;23130;48.760;9.178;2022-11-04T07:15:29;8.20;99.90
37240;DHT22;23130;48.760;9.178;2022-11-04T07:17:57;8.30;99.90
37240;DHT22;23130;48.760;9.178;2022-11-04T07:20:23;8.20;99.90
37240;DHT22;23130;48.760;9.178;2022-11-04T07:22:48;8.20;99.90
37240;DHT22;23130;48.760;9.178;2022-11-04T07:25:14;8.30;99.90
37240;DHT22;23130;48.760;9.178;2022-11-04T07:27:39;8.30;99.90
37240;DHT22;23130;48.760;9.178;2022-11-04T07:30:05;8.30;99.90
37240;DHT22;23130;48.760;9.178;2022-11-04T07:32:31;8.30;99.90
37240;DHT22;23130;48.760;9.178;2022-11-04T07:34:57;8.40;99.90
37240;DHT22;23130;48.760;9.178;2022-11-04T07:37:22;8.40;99.90
37240;DHT22;23130;48.760;9.178;2022-11-04T07:39:47;8.40;99.90
37240;DHT22;23130;48.760;9.178;2022-11-04T07:42:13;8.50;99.90
37240;DHT22;23130;48.760;9.178;2022-11-04T07:44:38;8.40;99.90
37240;DHT22;23130;48.760;9.178;2022-11-04T07:47:04;8.60;99.90
37240;DHT22;23130;48.760;9.178;2022-11-04T07:49:29;8.60;99.90
37240;DHT22;23130;48.760;9.178;2022-11-04T07:51:55;8.70;99.90
37240;DHT22;23130;48.760;9.178;2022-11-04T07:54:20;8.70;99.90
37240;DHT22;23130;48.760;9.178;2022-11-04T07:56:46;8.80;99.90
37240;DHT22;23130;48.760;9.178;2022-11-04T07:59:11;8.80;99.90
37240;DHT22;23130;48.760;9.178;2022-11-04T08:01:37;8.90;99.90
37240;DHT22;23130;48.760;9.178;2022-11-04T08:04:02;8.90;99.90
37240;DHT22;23130;48.760;9.178;2022-11-04T08:06:29;9.00;99.90
37240;DHT22;23130;48.760;9.178;2022-11-04T08:08:56;9.10;99.90
37240;DHT22;23130;48.760;9.178;2022-11-04T08:11:22;9.10;99.90
37240;DHT22;23130;48.760;9.178;2022-11-04T08:13:49;9.20;99.90
37240;DHT22;23130;48.760;9.178;2022-11-04T08:16:16;9.30;99.90
37240;DHT22;23130;48.760;9.178;2022-11-04T08:18:45;9.40;99.90
37240;DHT22;23130;48.760;9.178;2022-11-04T08:21:11;9.50;99.90
37240;DHT22;23130;48.760;9.178;2022-11-04T08:23:36;9.60;99.90
37240;DHT22;23130;48.760;9.178;2022-11-04T08:26:09;9.70;99.90
37240;DHT22;23130;48.760;9.178;2022-11-04T08:28:36;9.80;99.90
37240;DHT22;23130;48.760;9.178;2022-11-04T08:31:06;10.00;99.90
37240;DHT22;23130;48.760;9.178;2022-11-04T08:33:32;10.00;99.90
37240;DHT22;23130;48.760;9.178;2022-11-04T08:35:59;10.10;99.90
37240;DHT22;23130;48.760;9.178;2022-11-04T08:38:24;10.20;99.90
37240;DHT22;23130;48.760;9.178;2022-11-04T08:40:50;10.30;99.90
37240;DHT22;23130;48.760;9.178;2022-11-04T08:43:17;10.40;99.90
37240;DHT22;23130;48.760;9.178;2022-11-04T08:45:44;10.40;99.90
37240;DHT22;23130;48.760;9.178;2022-11-04T08:48:11;10.50;99.90
37240;DHT22;23130;48.760;9.178;2022-11-04T08:50:37;10.70;99.90
37240;DHT22;23130;48.760;9.178;2022-11-04T08:53:03;10.70;99.90
37240;DHT22;23130;48.760;9.178;2022-11-04T08:55:29;10.80;99.90
37240;DHT22;23130;48.760;9.178;2022-11-04T08:57:55;10.90;99.90
37240;DHT22;23130;48.760;9.178;2022-11-04T09:00:21;10.90;99.90
37240;DHT22;23130;48.760;9.178;2022-11-04T09:02:47;10.90;99.90
37240;DHT22;23130;48.760;9.178;2022-11-04T09:05:12;10.90;99.90
37240;DHT22;23130;48.760;9.178;2022-11-04T09:07:39;10.90;99.90
37240;DHT22;23130;48.760;9.178;2022-11-04T09:10:05;10.90;99.90
37240;DHT22;23130;48.760;9.178;2022-11-04T09:12:31;10.90;99.90
37240;DHT22;23130;48.760;9.178;2022-11-04T09:14:57;10.90;99.90
37240;DHT22;23130;48.760;9.178;2022-11-04T09:17:23;10.90;99.90
37240;DHT22;23130;48.760;9.178;2022-11-04T09:19:49;11.00;99.90
37240;DHT22;23130;48.760;9.178;2022-11-04T09:22:15;11.10;99.90
37240;DHT22;23130;48.760;9.178;2022-11-04T09:24:40;11.10;99.90
37240;DHT22;23130;48.760;9.178;2022-11-04T09:27:06;11.10;99.90
37240;DHT22;23130;48.760;9.178;2022-11-04T09:29:32;11.20;99.90
37240;DHT22;23130;48.760;9.178;2022-11-04T09:31:59;11.30;99.90
37240;DHT22;23130;48.760;9.178;2022-11-04T09:34:24;11.40;99.90
37240;DHT22;23130;48.760;9.178;2022-11-04T09:36:53;11.40;99.90
37240;DHT22;23130;48.760;9.178;2022-11-04T09:39:19;11.50;99.90
37240;DHT22;23130;48.760;9.178;2022-11-04T09:42:14;11.50;99.90
37240;DHT22;23130;48.760;9.178;2022-11-04T09:44:54;11.70;99.90
37240;DHT22;23130;48.760;9.178;2022-11-04T09:47:23;11.70;99.90
37240;DHT22;23130;48.760;9.178;2022-11-04T09:49:52;11.80;99.90
37240;DHT22;23130;48.760;9.178;2022-11-04T09:52:36;11.80;99.90
37240;DHT22;23130;48.760;9.178;2022-11-04T09:55:14;11.90;99.90
37240;DHT22;23130;48.760;9.178;2022-11-04T09:57:42;12.00;99.90
37240;DHT22;23130;48.760;9.178;2022-11-04T10:00:15;12.10;99.90
37240;DHT22;23130;48.760;9.178;2022-11-04T10:02:56;12.20;99.90
37240;DHT22;23130;48.760;9.178;2022-11-04T10:05:56;12.30;99.90
37240;DHT22;23130;48.760;9.178;2022-11-04T10:14:07;12.40;99.90
37240;DHT22;23130;48.760;9.178;2022-11-04T10:22:14;12.50;99.90
37240;DHT22;23130;48.760;9.178;2022-11-04T10:24:51;12.40;99.90
37240;DHT22;23130;48.760;9.178;2022-11-04T10:27:31;12.50;99.90
37240;DHT22;23130;48.760;9.178;2022-11-04T10:30:01;12.60;99.90
37240;DHT22;23130;48.760;9.178;2022-11-04T10:32:40;12.60;99.90
37240;DHT22;23130;48.760;9.178;2022-11-04T10:35:21;12.70;99.90
37240;DHT22;23130;48.760;9.178;2022-11-04T10:37:53;12.80;99.90
37240;DHT22;23130;48.760;9.178;2022-11-04T10:40:26;12.70;99.90
37240;DHT22;23130;48.760;9.178;2022-11-04T10:42:57;12.80;99.90
37240;DHT22;23130;48.760;9.178;2022-11-04T10:45:36;12.80;99.90
37240;DHT22;23130;48.760;9.178;2022-11-04T10:48:11;12.70;99.90
37240;DHT22;23130;48.760;9.178;2022-11-04T10:50:52;12.90;99.90
37240;DHT22;23130;48.760;9.178;2022-11-04T10:53:21;12.80;99.90
37240;DHT22;23130;48.760;9.178;2022-11-04T10:58:33;13.00;99.90
37240;DHT22;23130;48.760;9.178;2022-11-04T11:01:31;12.90;99.90
37240;DHT22;23130;48.760;9.178;2022-11-04T11:03:58;13.10;99.90
37240;DHT22;23130;48.760;9.178;2022-11-04T11:06:32;13.00;99.90
37240;DHT22;23130;48.760;9.178;2022-11-04T11:09:26;12.90;99.90
37240;DHT22;23130;48.760;9.178;2022-11-04T11:12:05;12.90;99.90
37240;DHT22;23130;48.760;9.178;2022-11-04T11:14:32;13.00;99.90
37240;DHT22;23130;48.760;9.178;2022-11-04T11:22:53;12.70;99.90
37240;DHT22;23130;48.760;9.178;2022-11-04T11:27:54;12.70;99.90
37240;DHT22;23130;48.760;9.178;2022-11-04T11:30:27;12.60;99.90
37240;DHT22;23130;48.760;9.178;2022-11-04T11:32:55;12.60;99.90
37240;DHT22;23130;48.760;9.178;2022-11-04T11:35:26;12.60;99.90
37240;DHT22;23130;48.760;9.178;2022-11-04T11:37:53;12.70;99.90
37240;DHT22;23130;48.760;9.178;2022-11-04T11:40:25;12.70;99.90
37240;DHT22;23130;48.760;9.178;2022-11-04T11:42:52;12.70;99.90
37240;DHT22;23130;48.760;9.178;2022-11-04T11:45:19;12.80;99.90
37240;DHT22;23130;48.760;9.178;2022-11-04T11:47:47;13.10;99.90
37240;DHT22;23130;48.760;9.178;2022-11-04T11:52:48;13.10;99.90
37240;DHT22;23130;48.760;9.178;2022-11-04T11:55:33;13.20;99.90
37240;DHT22;23130;48.760;9.178;2022-11-04T12:00:59;13.40;99.90
37240;DHT22;23130;48.760;9.178;2022-11-04T12:03:46;13.40;99.90
37240;DHT22;23130;48.760;9.178;2022-11-04T12:11:51;13.60;99.90
37240;DHT22;23130;48.760;9.178;2022-11-04T12:19:58;13.80;99.90
37240;DHT22;23130;48.760;9.178;2022-11-04T12:22:38;13.70;99.90
37240;DHT22;23130;48.760;9.178;2022-11-04T12:34:02;13.40;99.90
37240;DHT22;23130;48.760;9.178;2022-11-04T12:47:34;13.50;99.90
37240;DHT22;23130;48.760;9.178;2022-11-04T12:50:05;13.50;99.90
37240;DHT22;23130;48.760;9.178;2022-11-04T12:55:34;13.70;99.90
37240;DHT22;23130;48.760;9.178;2022-11-04T13:01:22;13.80;99.90
37240;DHT22;23130;48.760;9.178;2022-11-04T13:04:17;13.90;99.90
37240;DHT22;23130;48.760;9.178;2022-11-04T13:06:45;14.00;99.90
37240;DHT22;23130;48.760;9.178;2022-11-04T13:09:19;14.00;99.90
37240;DHT22;23130;48.760;9.178;2022-11-04T13:12:20;14.10;99.90
37240;DHT22;23130;48.760;9.178;2022-11-04T13:17:30;14.10;99.90
37240;DHT22;23130;48.760;9.178;2022-11-04T13:20:38;14.20;99.90
37240;DHT22;23130;48.760;9.178;2022-11-04T13:23:04;14.20;99.90
37240;DHT22;23130;48.760;9.178;2022-11-04T13:25:50;14.40;99.90
37240;DHT22;23130;48.760;9.178;2022-11-04T13:28:19;14.40;99.90
37240;DHT22;23130;48.760;9.178;2022-11-04T13:36:12;14.20;99.90
37240;DHT22;23130;48.760;9.178;2022-11-04T13:38:59;14.00;99.90
37240;DHT22;23130;48.760;9.178;2022-11-04T13:44:43;13.60;99.90
37240;DHT22;23130;48.760;9.178;2022-11-04T13:47:26;13.40;99.90
37240;DHT22;23130;48.760;9.178;2022-11-04T13:49:55;13.10;99.90
37240;DHT22;23130;48.760;9.178;2022-11-04T13:52:23;13.00;99.90
37240;DHT22;23130;48.760;9.178;2022-11-04T13:57:19;12.10;99.90
37240;DHT22;23130;48.760;9.178;2022-11-04T14:02:44;11.30;99.90
37240;DHT22;23130;48.760;9.178;2022-11-04T14:18:45;9.70;99.90
37240;DHT22;23130;48.760;9.178;2022-11-04T14:21:15;9.50;99.90
37240;DHT22;23130;48.760;9.178;2022-11-04T14:23:42;9.30;99.90
37240;DHT22;23130;48.760;9.178;2022-11-04T14:26:09;9.10;99.90
37240;DHT22;23130;48.760;9.178;2022-11-04T14:28:36;9.00;99.90
37240;DHT22;23130;48.760;9.178;2022-11-04T14:31:06;9.10;99.90
37240;DHT22;23130;48.760;9.178;2022-11-04T14:33:37;9.10;99.90
37240;DHT22;23130;48.760;9.178;2022-11-04T14:38:40;9.10;99.90
37240;DHT22;23130;48.760;9.178;2022-11-04T14:41:14;9.20;99.90
37240;DHT22;23130;48.760;9.178;2022-11-04T14:43:43;9.30;99.90
37240;DHT22;23130;48.760;9.178;2022-11-04T14:46:12;9.50;99.90
37240;DHT22;23130;48.760;9.178;2022-11-04T14:48:46;9.60;99.90
37240;DHT22;23130;48.760;9.178;2022-11-04T14:51:39;9.70;99.90
37240;DHT22;23130;48.760;9.178;2022-11-04T14:54:24;9.70;99.90
37240;DHT22;23130;48.760;9.178;2022-11-04T14:56:51;9.70;99.90
37240;DHT22;23130;48.760;9.178;2022-11-04T14:59:21;9.70;99.90
37240;DHT22;23130;48.760;9.178;2022-11-04T15:01:47;9.60;99.90
37240;DHT22;23130;48.760;9.178;2022-11-04T15:04:26;9.60;99.90
37240;DHT22;23130;48.760;9.178;2022-11-04T15:06:57;9.70;99.90
37240;DHT22;23130;48.760;9.178;2022-11-04T15:09:24;9.70;99.90
37240;DHT22;23130;48.760;9.178;2022-11-04T15:11:57;9.70;99.90
37240;DHT22;23130;48.760;9.178;2022-11-04T15:14:42;9.60;99.90
37240;DHT22;23130;48.760;9.178;2022-11-04T15:17:17;9.50;99.90
37240;DHT22;23130;48.760;9.178;2022-11-04T15:19:45;9.40;99.90
37240;DHT22;23130;48.760;9.178;2022-11-04T15:22:13;9.40;99.90
37240;DHT22;23130;48.760;9.178;2022-11-04T15:24:41;9.30;99.90
37240;DHT22;23130;48.760;9.178;2022-11-04T15:27:17;9.30;99.90
37240;DHT22;23130;48.760;9.178;2022-11-04T15:29:58;9.40;99.90
37240;DHT22;23130;48.760;9.178;2022-11-04T15:32:24;9.30;99.90
37240;DHT22;23130;48.760;9.178;2022-11-04T15:34:51;9.30;99.90
37240;DHT22;23130;48.760;9.178;2022-11-04T15:37:17;9.30;99.90
37240;DHT22;23130;48.760;9.178;2022-11-04T15:39:44;9.20;99.90
37240;DHT22;23130;48.760;9.178;2022-11-04T15:42:13;9.20;99.90
37240;DHT22;23130;48.760;9.178;2022-11-04T15:44:59;9.10;99.90
37240;DHT22;23130;48.760;9.178;2022-11-04T15:47:40;9.10;99.90
37240;DHT22;23130;48.760;9.178;2022-11-04T15:50:14;9.00;99.90
37240;DHT22;23130;48.760;9.178;2022-11-04T15:52:52;8.90;99.90
37240;DHT22;23130;48.760;9.178;2022-11-04T15:55:24;8.80;99.90
37240;DHT22;23130;48.760;9.178;2022-11-04T15:57:50;8.70;99.90
37240;DHT22;23130;48.760;9.178;2022-11-04T16:00:21;8.60;99.90
37240;DHT22;23130;48.760;9.178;2022-11-04T16:02:52;8.50;99.90
37240;DHT22;23130;48.760;9.178;2022-11-04T16:05:26;8.40;99.90
37240;DHT22;23130;48.760;9.178;2022-11-04T16:07:52;8.40;99.90
37240;DHT22;23130;48.760;9.178;2022-11-04T16:10:29;8.40;99.90
37240;DHT22;23130;48.760;9.178;2022-11-04T16:12:58;8.30;99.90
37240;DHT22;23130;48.760;9.178;2022-11-04T16:17:56;8.30;99.90
37240;DHT22;23130;48.760;9.178;2022-11-04T16:20:21;8.30;99.90
37240;DHT22;23130;48.760;9.178;2022-11-04T16:22:53;8.30;99.90
37240;DHT22;23130;48.760;9.178;2022-11-04T16:25:20;8.30;99.90
37240;DHT22;23130;48.760;9.178;2022-11-04T16:27:47;8.20;99.90
37240;DHT22;23130;48.760;9.178;2022-11-04T16:30:17;8.20;99.90
37240;DHT22;23130;48.760;9.178;2022-11-04T16:32:44;8.20;99.90
37240;DHT22;23130;48.760;9.178;2022-11-04T16:35:32;8.20;99.90
37240;DHT22;23130;48.760;9.178;2022-11-04T16:37:59;8.20;99.90
37240;DHT22;23130;48.760;9.178;2022-11-04T16:40:24;8.20;99.90
37240;DHT22;23130;48.760;9.178;2022-11-04T16:42:50;8.10;99.90
37240;DHT22;23130;48.760;9.178;2022-11-04T16:45:26;8.20;99.90
37240;DHT22;23130;48.760;9.178;2022-11-04T16:47:54;8.20;99.90
37240;DHT22;23130;48.760;9.178;2022-11-04T16:50:20;8.20;99.90
37240;DHT22;23130;48.760;9.178;2022-11-04T16:52:45;8.20;99.90
37240;DHT22;23130;48.760;9.178;2022-11-04T16:55:11;8.20;99.90
37240;DHT22;23130;48.760;9.178;2022-11-04T16:57:37;8.20;99.90
37240;DHT22;23130;48.760;9.178;2022-11-04T17:00:03;8.20;99.90
37240;DHT22;23130;48.760;9.178;2022-11-04T17:02:33;8.20;99.90
37240;DHT22;23130;48.760;9.178;2022-11-04T17:05:05;8.20;99.90
37240;DHT22;23130;48.760;9.178;2022-11-04T17:07:32;8.20;99.90
37240;DHT22;23130;48.760;9.178;2022-11-04T17:09:58;8.20;99.90
37240;DHT22;23130;48.760;9.178;2022-11-04T17:12:23;8.20;99.90
37240;DHT22;23130;48.760;9.178;2022-11-04T17:14:49;8.10;99.90
37240;DHT22;23130;48.760;9.178;2022-11-04T17:17:14;8.20;99.90
37240;DHT22;23130;48.760;9.178;2022-11-04T17:19:41;8.20;99.90
37240;DHT22;23130;48.760;9.178;2022-11-04T17:22:06;8.10;99.90
37240;DHT22;23130;48.760;9.178;2022-11-04T17:24:32;8.10;99.90
37240;DHT22;23130;48.760;9.178;2022-11-04T17:26:58;8.10;99.90
37240;DHT22;23130;48.760;9.178;2022-11-04T17:29:23;8.00;99.90
37240;DHT22;23130;48.760;9.178;2022-11-04T17:31:49;8.00;99.90
37240;DHT22;23130;48.760;9.178;2022-11-04T17:34:17;8.00;99.90
37240;DHT22;23130;48.760;9.178;2022-11-04T17:36:42;8.00;99.90
37240;DHT22;23130;48.760;9.178;2022-11-04T17:39:08;8.00;99.90
37240;DHT22;23130;48.760;9.178;2022-11-04T17:41:33;8.00;99.90
37240;DHT22;23130;48.760;9.178;2022-11-04T17:44:18;8.00;99.90
37240;DHT22;23130;48.760;9.178;2022-11-04T17:46:43;8.00;99.90
37240;DHT22;23130;48.760;9.178;2022-11-04T17:49:19;8.10;99.90
37240;DHT22;23130;48.760;9.178;2022-11-04T17:51:46;8.10;99.90
37240;DHT22;23130;48.760;9.178;2022-11-04T17:54:12;8.10;99.90
37240;DHT22;23130;48.760;9.178;2022-11-04T17:56:38;8.10;99.90
37240;DHT22;23130;48.760;9.178;2022-11-04T17:59:05;8.10;99.90
37240;DHT22;23130;48.760;9.178;2022-11-04T18:01:31;8.10;99.90
37240;DHT22;23130;48.760;9.178;2022-11-04T18:03:56;8.10;99.90
37240;DHT22;23130;48.760;9.178;2022-11-04T18:06:23;8.10;99.90
37240;DHT22;23130;48.760;9.178;2022-11-04T18:08:52;8.00;99.90
37240;DHT22;23130;48.760;9.178;2022-11-04T18:11:19;8.10;99.90
37240;DHT22;23130;48.760;9.178;2022-11-04T18:14:03;8.10;99.90